sensor_id;sensor_type;location;lat;lon;timestamp;P1;durP1;ratioP1;P2;durP2;ratioP2
25509;SDS011;13413;52.336;21.200;2023-08-12T00:00:43;15.90;;;10.00;;
25509;SDS011;13413;52.336;21.200;2023-08-12T00:03:37;15.90;;;10.30;;
25509;SDS011;13413;52.336;21.200;2023-08-12T00:06:31;12.70;;;9.90;;
25509;SDS011;13413;52.336;21.200;2023-08-12T00:09:25;13.10;;;10.00;;
25509;SDS011;13413;52.336;21.200;2023-08-12T00:12:19;15.10;;;9.50;;
25509;SDS011;13413;52.336;21.200;2023-08-12T00:15:13;14.40;;;10.20;;
25509;SDS011;13413;52.336;21.200;2023-08-12T00:18:07;15.60;;;9.20;;
25509;SDS011;13413;52.336;21.200;2023-08-12T00:21:01;12.80;;;8.90;;
25509;SDS011;13413;52.336;21.200;2023-08-12T00:23:55;13.70;;;9.10;;
25509;SDS011;13413;52.336;21.200;2023-08-12T00:35:56;13.90;;;9.20;;
25509;SDS011;13413;52.336;21.200;2023-08-12T00:38:50;13.20;;;9.10;;
25509;SDS011;13413;52.336;21.200;2023-08-12T00:41:44;12.30;;;9.00;;
25509;SDS011;13413;52.336;21.200;2023-08-12T00:44:38;13.10;;;9.50;;
25509;SDS011;13413;52.336;21.200;2023-08-12T00:47:32;11.10;;;8.50;;
25509;SDS011;13413;52.336;21.200;2023-08-12T00:50:26;12.90;;;8.40;;
25509;SDS011;13413;52.336;21.200;2023-08-12T00:53:20;18.60;;;7.50;;
25509;SDS011;13413;52.336;21.200;2023-08-12T00:56:14;11.60;;;7.90;;
25509;SDS011;13413;52.336;21.200;2023-08-12T00:59:09;11.10;;;8.20;;
25509;SDS011;13413;52.336;21.200;2023-08-12T01:04:57;11.90;;;8.10;;
25509;SDS011;13413;52.336;21.200;2023-08-12T01:07:51;13.00;;;7.70;;
25509;SDS011;13413;52.336;21.200;2023-08-12T01:10:46;14.80;;;9.00;;
25509;SDS011;13413;52.336;21.200;2023-08-12T01:13:49;10.60;;;7.90;;
25509;SDS011;13413;52.336;21.200;2023-08-12T01:16:51;10.00;;;7.10;;
25509;SDS011;13413;52.336;21.200;2023-08-12T01:19:49;11.30;;;7.90;;
25509;SDS011;13413;52.336;21.200;2023-08-12T01:22:44;9.40;;;7.80;;
25509;SDS011;13413;52.336;21.200;2023-08-12T01:25:38;10.30;;;7.70;;
25509;SDS011;13413;52.336;21.200;2023-08-12T01:28:32;19.60;;;8.00;;
25509;SDS011;13413;52.336;21.200;2023-08-12T01:31:27;18.40;;;7.60;;
25509;SDS011;13413;52.336;21.200;2023-08-12T01:34:44;11.00;;;7.00;;
25509;SDS011;13413;52.336;21.200;2023-08-12T01:37:42;10.80;;;6.90;;
25509;SDS011;13413;52.336;21.200;2023-08-12T01:40:37;8.10;;;6.70;;
25509;SDS011;13413;52.336;21.200;2023-08-12T01:43:32;8.80;;;6.60;;
25509;SDS011;13413;52.336;21.200;2023-08-12T01:46:27;8.70;;;6.60;;
25509;SDS011;13413;52.336;21.200;2023-08-12T01:49:21;8.30;;;6.90;;
25509;SDS011;13413;52.336;21.200;2023-08-12T01:52:15;10.50;;;7.20;;
25509;SDS011;13413;52.336;21.200;2023-08-12T01:55:09;8.60;;;6.60;;
25509;SDS011;13413;52.336;21.200;2023-08-12T01:58:03;8.40;;;6.90;;
25509;SDS011;13413;52.336;21.200;2023-08-12T02:00:57;12.00;;;7.80;;
25509;SDS011;13413;52.336;21.200;2023-08-12T02:03:51;11.50;;;7.70;;
25509;SDS011;13413;52.336;21.200;2023-08-12T02:06:45;15.00;;;9.20;;
25509;SDS011;13413;52.336;21.200;2023-08-12T02:09:39;11.30;;;7.20;;
25509;SDS011;13413;52.336;21.200;2023-08-12T02:12:33;12.90;;;7.80;;
25509;SDS011;13413;52.336;21.200;2023-08-12T02:15:27;10.70;;;7.20;;
25509;SDS011;13413;52.336;21.200;2023-08-12T02:18:21;7.60;;;6.40;;
25509;SDS011;13413;52.336;21.200;2023-08-12T02:21:15;9.80;;;6.90;;
25509;SDS011;13413;52.336;21.200;2023-08-12T02:24:09;10.90;;;7.10;;
25509;SDS011;13413;52.336;21.200;2023-08-12T02:27:04;12.20;;;6.50;;
25509;SDS011;13413;52.336;21.200;2023-08-12T02:29:57;10.10;;;7.20;;
25509;SDS011;13413;52.336;21.200;2023-08-12T02:32:51;12.50;;;7.30;;
25509;SDS011;13413;52.336;21.200;2023-08-12T02:35:45;9.40;;;6.50;;
25509;SDS011;13413;52.336;21.200;2023-08-12T02:38:39;13.40;;;7.60;;
25509;SDS011;13413;52.336;21.200;2023-08-12T02:41:33;12.30;;;7.70;;
25509;SDS011;13413;52.336;21.200;2023-08-12T02:44:28;11.00;;;7.00;;
25509;SDS011;13413;52.336;21.200;2023-08-12T02:55:47;14.10;;;7.60;;
25509;SDS011;13413;52.336;21.200;2023-08-12T02:58:41;10.10;;;7.50;;
25509;SDS011;13413;52.336;21.200;2023-08-12T03:01:35;9.90;;;7.20;;
25509;SDS011;13413;52.336;21.200;2023-08-12T03:04:29;12.60;;;8.00;;
25509;SDS011;13413;52.336;21.200;2023-08-12T03:07:23;11.20;;;7.40;;
25509;SDS011;13413;52.336;21.200;2023-08-12T03:10:17;10.60;;;7.70;;
25509;SDS011;13413;52.336;21.200;2023-08-12T03:13:11;12.20;;;7.20;;
25509;SDS011;13413;52.336;21.200;2023-08-12T03:16:08;11.80;;;7.50;;
25509;SDS011;13413;52.336;21.200;2023-08-12T03:19:05;10.80;;;7.60;;
25509;SDS011;13413;52.336;21.200;2023-08-12T03:21:59;14.30;;;7.40;;
25509;SDS011;13413;52.336;21.200;2023-08-12T03:24:56;7.90;;;6.50;;
25509;SDS011;13413;52.336;21.200;2023-08-12T03:27:50;15.90;;;7.30;;
25509;SDS011;13413;52.336;21.200;2023-08-12T03:30:49;12.30;;;7.40;;
25509;SDS011;13413;52.336;21.200;2023-08-12T03:33:43;9.30;;;6.50;;
25509;SDS011;13413;52.336;21.200;2023-08-12T03:36:37;11.40;;;7.30;;
25509;SDS011;13413;52.336;21.200;2023-08-12T03:39:31;8.40;;;6.40;;
25509;SDS011;13413;52.336;21.200;2023-08-12T03:55:35;8.60;;;6.70;;
25509;SDS011;13413;52.336;21.200;2023-08-12T03:58:29;9.60;;;6.10;;
25509;SDS011;13413;52.336;21.200;2023-08-12T04:01:23;11.20;;;7.10;;
25509;SDS011;13413;52.336;21.200;2023-08-12T04:04:17;10.60;;;7.40;;
25509;SDS011;13413;52.336;21.200;2023-08-12T04:07:11;12.30;;;6.80;;
25509;SDS011;13413;52.336;21.200;2023-08-12T04:10:06;8.80;;;6.60;;
25509;SDS011;13413;52.336;21.200;2023-08-12T04:13:01;10.00;;;7.60;;
25509;SDS011;13413;52.336;21.200;2023-08-12T04:15:55;8.30;;;6.60;;
25509;SDS011;13413;52.336;21.200;2023-08-12T04:18:49;10.20;;;7.10;;
25509;SDS011;13413;52.336;21.200;2023-08-12T04:21:43;9.90;;;7.40;;
25509;SDS011;13413;52.336;21.200;2023-08-12T04:24:37;14.40;;;7.50;;
25509;SDS011;13413;52.336;21.200;2023-08-12T04:27:31;9.40;;;7.40;;
25509;SDS011;13413;52.336;21.200;2023-08-12T04:30:27;11.60;;;6.80;;
25509;SDS011;13413;52.336;21.200;2023-08-12T04:33:22;10.90;;;7.80;;
25509;SDS011;13413;52.336;21.200;2023-08-12T04:36:16;9.80;;;7.40;;
25509;SDS011;13413;52.336;21.200;2023-08-12T04:39:10;15.60;;;7.90;;
25509;SDS011;13413;52.336;21.200;2023-08-12T04:42:04;12.50;;;8.10;;
25509;SDS011;13413;52.336;21.200;2023-08-12T04:47:51;8.00;;;7.10;;
25509;SDS011;13413;52.336;21.200;2023-08-12T04:50:45;12.80;;;7.60;;
25509;SDS011;13413;52.336;21.200;2023-08-12T04:53:39;13.70;;;7.80;;
25509;SDS011;13413;52.336;21.200;2023-08-12T04:56:33;13.80;;;8.30;;
25509;SDS011;13413;52.336;21.200;2023-08-12T04:59:27;13.50;;;7.70;;
25509;SDS011;13413;52.336;21.200;2023-08-12T05:02:21;19.50;;;8.20;;
25509;SDS011;13413;52.336;21.200;2023-08-12T05:05:15;17.60;;;8.30;;
25509;SDS011;13413;52.336;21.200;2023-08-12T05:08:09;12.40;;;6.70;;
25509;SDS011;13413;52.336;21.200;2023-08-12T05:11:03;21.10;;;7.50;;
25509;SDS011;13413;52.336;21.200;2023-08-12T05:13:57;13.10;;;7.30;;
25509;SDS011;13413;52.336;21.200;2023-08-12T05:16:51;15.10;;;7.70;;
25509;SDS011;13413;52.336;21.200;2023-08-12T05:19:45;12.80;;;7.20;;
25509;SDS011;13413;52.336;21.200;2023-08-12T05:22:39;12.50;;;7.30;;
25509;SDS011;13413;52.336;21.200;2023-08-12T05:25:34;14.20;;;7.00;;
25509;SDS011;13413;52.336;21.200;2023-08-12T05:28:28;12.40;;;7.10;;
25509;SDS011;13413;52.336;21.200;2023-08-12T05:31:22;19.20;;;7.40;;
25509;SDS011;13413;52.336;21.200;2023-08-12T05:34:16;11.30;;;6.80;;
25509;SDS011;13413;52.336;21.200;2023-08-12T05:37:10;9.10;;;6.30;;
25509;SDS011;13413;52.336;21.200;2023-08-12T05:40:05;10.40;;;6.10;;
25509;SDS011;13413;52.336;21.200;2023-08-12T05:43:01;13.00;;;6.80;;
25509;SDS011;13413;52.336;21.200;2023-08-12T05:45:55;11.90;;;7.10;;
25509;SDS011;13413;52.336;21.200;2023-08-12T05:48:49;12.40;;;6.80;;
25509;SDS011;13413;52.336;21.200;2023-08-12T05:51:43;18.40;;;7.20;;
25509;SDS011;13413;52.336;21.200;2023-08-12T05:54:37;13.30;;;6.40;;
25509;SDS011;13413;52.336;21.200;2023-08-12T05:57:31;8.70;;;6.70;;
25509;SDS011;13413;52.336;21.200;2023-08-12T06:00:25;10.50;;;6.50;;
25509;SDS011;13413;52.336;21.200;2023-08-12T06:03:19;10.20;;;6.90;;
25509;SDS011;13413;52.336;21.200;2023-08-12T06:06:13;10.00;;;5.50;;
25509;SDS011;13413;52.336;21.200;2023-08-12T06:11:50;8.40;;;5.50;;
25509;SDS011;13413;52.336;21.200;2023-08-12T06:14:44;11.80;;;6.30;;
25509;SDS011;13413;52.336;21.200;2023-08-12T06:17:37;13.40;;;6.60;;
25509;SDS011;13413;52.336;21.200;2023-08-12T06:20:32;7.90;;;5.60;;
25509;SDS011;13413;52.336;21.200;2023-08-12T06:23:26;10.50;;;6.10;;
25509;SDS011;13413;52.336;21.200;2023-08-12T06:26:20;10.30;;;5.40;;
25509;SDS011;13413;52.336;21.200;2023-08-12T06:29:14;14.20;;;5.60;;
25509;SDS011;13413;52.336;21.200;2023-08-12T06:32:08;8.10;;;5.40;;
25509;SDS011;13413;52.336;21.200;2023-08-12T06:35:02;11.60;;;6.30;;
25509;SDS011;13413;52.336;21.200;2023-08-12T06:40:50;12.30;;;5.80;;
25509;SDS011;13413;52.336;21.200;2023-08-12T06:43:44;14.00;;;6.20;;
25509;SDS011;13413;52.336;21.200;2023-08-12T06:46:38;7.00;;;5.40;;
25509;SDS011;13413;52.336;21.200;2023-08-12T06:49:32;9.60;;;5.20;;
25509;SDS011;13413;52.336;21.200;2023-08-12T06:52:26;7.80;;;4.80;;
25509;SDS011;13413;52.336;21.200;2023-08-12T06:55:19;9.30;;;5.00;;
25509;SDS011;13413;52.336;21.200;2023-08-12T06:58:14;7.60;;;4.70;;
25509;SDS011;13413;52.336;21.200;2023-08-12T07:01:08;9.00;;;4.80;;
25509;SDS011;13413;52.336;21.200;2023-08-12T07:04:02;7.70;;;4.30;;
25509;SDS011;13413;52.336;21.200;2023-08-12T07:09:49;7.40;;;4.20;;
25509;SDS011;13413;52.336;21.200;2023-08-12T07:12:42;7.10;;;4.10;;
25509;SDS011;13413;52.336;21.200;2023-08-12T07:15:36;10.90;;;4.60;;
25509;SDS011;13413;52.336;21.200;2023-08-12T07:18:31;7.00;;;3.60;;
25509;SDS011;13413;52.336;21.200;2023-08-12T07:21:25;6.00;;;4.10;;
25509;SDS011;13413;52.336;21.200;2023-08-12T07:24:19;8.90;;;3.70;;
25509;SDS011;13413;52.336;21.200;2023-08-12T07:27:13;5.80;;;3.60;;
25509;SDS011;13413;52.336;21.200;2023-08-12T07:30:07;10.30;;;3.40;;
25509;SDS011;13413;52.336;21.200;2023-08-12T07:35:54;6.90;;;3.30;;
25509;SDS011;13413;52.336;21.200;2023-08-12T07:38:48;7.30;;;3.40;;
25509;SDS011;13413;52.336;21.200;2023-08-12T07:41:42;7.70;;;3.50;;
25509;SDS011;13413;52.336;21.200;2023-08-12T07:44:36;8.20;;;2.10;;
25509;SDS011;13413;52.336;21.200;2023-08-12T07:47:30;5.40;;;2.20;;
25509;SDS011;13413;52.336;21.200;2023-08-12T07:50:24;8.10;;;2.10;;
25509;SDS011;13413;52.336;21.200;2023-08-12T07:53:18;5.00;;;2.00;;
25509;SDS011;13413;52.336;21.200;2023-08-12T07:56:12;7.60;;;2.10;;
25509;SDS011;13413;52.336;21.200;2023-08-12T07:59:06;6.90;;;2.60;;
25509;SDS011;13413;52.336;21.200;2023-08-12T08:02:00;8.30;;;3.40;;
25509;SDS011;13413;52.336;21.200;2023-08-12T08:04:54;5.90;;;3.10;;
25509;SDS011;13413;52.336;21.200;2023-08-12T08:07:48;4.60;;;2.60;;
25509;SDS011;13413;52.336;21.200;2023-08-12T08:10:43;8.90;;;3.50;;
25509;SDS011;13413;52.336;21.200;2023-08-12T08:13:37;6.50;;;3.10;;
25509;SDS011;13413;52.336;21.200;2023-08-12T08:16:31;8.40;;;2.80;;
25509;SDS011;13413;52.336;21.200;2023-08-12T08:19:25;5.20;;;4.80;;
25509;SDS011;13413;52.336;21.200;2023-08-12T08:32:37;8.70;;;2.70;;
25509;SDS011;13413;52.336;21.200;2023-08-12T08:35:31;5.70;;;2.70;;
25509;SDS011;13413;52.336;21.200;2023-08-12T08:38:25;5.40;;;2.80;;
25509;SDS011;13413;52.336;21.200;2023-08-12T08:41:19;6.40;;;2.40;;
25509;SDS011;13413;52.336;21.200;2023-08-12T08:44:13;8.80;;;2.40;;
25509;SDS011;13413;52.336;21.200;2023-08-12T08:47:09;8.60;;;3.30;;
25509;SDS011;13413;52.336;21.200;2023-08-12T08:50:05;5.80;;;2.70;;
25509;SDS011;13413;52.336;21.200;2023-08-12T08:53:00;4.00;;;2.50;;
25509;SDS011;13413;52.336;21.200;2023-08-12T08:55:56;5.80;;;2.70;;
25509;SDS011;13413;52.336;21.200;2023-08-12T08:58:52;5.50;;;2.30;;
25509;SDS011;13413;52.336;21.200;2023-08-12T09:01:46;3.40;;;2.40;;
25509;SDS011;13413;52.336;21.200;2023-08-12T09:04:41;5.20;;;2.30;;
25509;SDS011;13413;52.336;21.200;2023-08-12T09:07:35;5.20;;;2.40;;
25509;SDS011;13413;52.336;21.200;2023-08-12T09:10:31;7.70;;;2.60;;
25509;SDS011;13413;52.336;21.200;2023-08-12T09:13:27;4.90;;;2.50;;
25509;SDS011;13413;52.336;21.200;2023-08-12T09:19:15;10.90;;;2.60;;
25509;SDS011;13413;52.336;21.200;2023-08-12T09:22:09;5.10;;;2.40;;
25509;SDS011;13413;52.336;21.200;2023-08-12T09:27:59;3.90;;;2.20;;
25509;SDS011;13413;52.336;21.200;2023-08-12T09:30:53;5.30;;;2.40;;
25509;SDS011;13413;52.336;21.200;2023-08-12T09:33:47;7.50;;;2.30;;
25509;SDS011;13413;52.336;21.200;2023-08-12T09:36:41;5.00;;;2.50;;
25509;SDS011;13413;52.336;21.200;2023-08-12T09:39:35;2.80;;;2.00;;
25509;SDS011;13413;52.336;21.200;2023-08-12T09:42:29;3.20;;;2.10;;
25509;SDS011;13413;52.336;21.200;2023-08-12T09:45:24;7.70;;;2.20;;
25509;SDS011;13413;52.336;21.200;2023-08-12T09:48:20;14.40;;;2.20;;
25509;SDS011;13413;52.336;21.200;2023-08-12T09:51:14;11.30;;;2.70;;
25509;SDS011;13413;52.336;21.200;2023-08-12T09:54:10;18.40;;;3.80;;
25509;SDS011;13413;52.336;21.200;2023-08-12T09:57:04;6.90;;;2.00;;
25509;SDS011;13413;52.336;21.200;2023-08-12T10:00:00;6.60;;;2.00;;
25509;SDS011;13413;52.336;21.200;2023-08-12T10:02:57;7.50;;;2.50;;
25509;SDS011;13413;52.336;21.200;2023-08-12T10:05:53;5.10;;;1.90;;
25509;SDS011;13413;52.336;21.200;2023-08-12T10:08:47;11.20;;;2.50;;
25509;SDS011;13413;52.336;21.200;2023-08-12T10:11:42;4.60;;;2.30;;
25509;SDS011;13413;52.336;21.200;2023-08-12T10:14:37;5.00;;;2.20;;
25509;SDS011;13413;52.336;21.200;2023-08-12T10:17:31;5.70;;;2.30;;
25509;SDS011;13413;52.336;21.200;2023-08-12T10:20:46;4.00;;;1.90;;
25509;SDS011;13413;52.336;21.200;2023-08-12T10:23:41;2.70;;;1.70;;
25509;SDS011;13413;52.336;21.200;2023-08-12T10:26:36;6.10;;;2.00;;
25509;SDS011;13413;52.336;21.200;2023-08-12T10:29:32;4.70;;;2.30;;
25509;SDS011;13413;52.336;21.200;2023-08-12T10:32:46;5.20;;;1.90;;
25509;SDS011;13413;52.336;21.200;2023-08-12T10:35:44;2.00;;;1.80;;
25509;SDS011;13413;52.336;21.200;2023-08-12T10:38:39;6.80;;;2.00;;
25509;SDS011;13413;52.336;21.200;2023-08-12T10:41:33;5.50;;;2.60;;
25509;SDS011;13413;52.336;21.200;2023-08-12T10:52:27;3.10;;;1.70;;
25509;SDS011;13413;52.336;21.200;2023-08-12T10:55:23;7.50;;;2.10;;
25509;SDS011;13413;52.336;21.200;2023-08-12T10:58:25;7.10;;;2.80;;
25509;SDS011;13413;52.336;21.200;2023-08-12T11:01:21;3.20;;;2.00;;
25509;SDS011;13413;52.336;21.200;2023-08-12T11:04:20;6.70;;;1.80;;
25509;SDS011;13413;52.336;21.200;2023-08-12T11:07:17;15.80;;;2.40;;
25509;SDS011;13413;52.336;21.200;2023-08-12T11:10:12;7.40;;;2.50;;
25509;SDS011;13413;52.336;21.200;2023-08-12T11:13:08;4.60;;;2.50;;
25509;SDS011;13413;52.336;21.200;2023-08-12T11:16:09;7.30;;;2.70;;
25509;SDS011;13413;52.336;21.200;2023-08-12T11:19:03;3.70;;;2.20;;
25509;SDS011;13413;52.336;21.200;2023-08-12T11:21:58;3.20;;;1.90;;
25509;SDS011;13413;52.336;21.200;2023-08-12T11:24:53;5.80;;;2.30;;
25509;SDS011;13413;52.336;21.200;2023-08-12T11:27:47;2.60;;;1.70;;
25509;SDS011;13413;52.336;21.200;2023-08-12T11:30:42;4.60;;;2.10;;
25509;SDS011;13413;52.336;21.200;2023-08-12T11:33:35;3.40;;;2.00;;
25509;SDS011;13413;52.336;21.200;2023-08-12T11:36:30;2.10;;;1.90;;
25509;SDS011;13413;52.336;21.200;2023-08-12T11:39:24;3.80;;;2.00;;
25509;SDS011;13413;52.336;21.200;2023-08-12T11:42:18;4.40;;;1.80;;
25509;SDS011;13413;52.336;21.200;2023-08-12T11:45:12;3.00;;;1.70;;
25509;SDS011;13413;52.336;21.200;2023-08-12T11:48:08;4.60;;;2.00;;
25509;SDS011;13413;52.336;21.200;2023-08-12T11:51:03;5.60;;;1.80;;
25509;SDS011;13413;52.336;21.200;2023-08-12T11:53:57;4.20;;;2.20;;
25509;SDS011;13413;52.336;21.200;2023-08-12T11:56:52;5.90;;;2.10;;
25509;SDS011;13413;52.336;21.200;2023-08-12T11:59:46;4.00;;;1.70;;
25509;SDS011;13413;52.336;21.200;2023-08-12T12:02:41;3.90;;;2.10;;
25509;SDS011;13413;52.336;21.200;2023-08-12T12:05:38;4.90;;;2.30;;
25509;SDS011;13413;52.336;21.200;2023-08-12T12:08:32;8.70;;;2.00;;
25509;SDS011;13413;52.336;21.200;2023-08-12T12:11:26;6.00;;;3.00;;
25509;SDS011;13413;52.336;21.200;2023-08-12T12:14:20;3.70;;;2.00;;
25509;SDS011;13413;52.336;21.200;2023-08-12T12:17:14;4.00;;;2.50;;
25509;SDS011;13413;52.336;21.200;2023-08-12T12:20:08;3.10;;;1.60;;
25509;SDS011;13413;52.336;21.200;2023-08-12T12:23:06;6.80;;;1.90;;
25509;SDS011;13413;52.336;21.200;2023-08-12T12:26:01;3.30;;;2.20;;
25509;SDS011;13413;52.336;21.200;2023-08-12T12:31:51;4.60;;;2.00;;
25509;SDS011;13413;52.336;21.200;2023-08-12T12:34:51;4.00;;;1.90;;
25509;SDS011;13413;52.336;21.200;2023-08-12T12:37:45;5.30;;;2.10;;
25509;SDS011;13413;52.336;21.200;2023-08-12T12:40:39;6.60;;;2.60;;
25509;SDS011;13413;52.336;21.200;2023-08-12T12:43:33;3.30;;;2.00;;
25509;SDS011;13413;52.336;21.200;2023-08-12T12:46:27;5.90;;;2.00;;
25509;SDS011;13413;52.336;21.200;2023-08-12T12:49:24;5.50;;;2.50;;
25509;SDS011;13413;52.336;21.200;2023-08-12T12:52:18;5.60;;;2.40;;
25509;SDS011;13413;52.336;21.200;2023-08-12T12:55:12;5.10;;;1.90;;
25509;SDS011;13413;52.336;21.200;2023-08-12T12:58:06;7.30;;;2.40;;
25509;SDS011;13413;52.336;21.200;2023-08-12T13:01:00;2.90;;;2.00;;
25509;SDS011;13413;52.336;21.200;2023-08-12T13:12:18;6.20;;;2.20;;
25509;SDS011;13413;52.336;21.200;2023-08-12T13:15:12;9.70;;;2.40;;
25509;SDS011;13413;52.336;21.200;2023-08-12T13:18:06;9.00;;;2.70;;
25509;SDS011;13413;52.336;21.200;2023-08-12T13:21:00;6.60;;;2.10;;
25509;SDS011;13413;52.336;21.200;2023-08-12T13:23:54;5.30;;;2.60;;
25509;SDS011;13413;52.336;21.200;2023-08-12T13:26:48;2.90;;;1.90;;
25509;SDS011;13413;52.336;21.200;2023-08-12T13:29:42;3.30;;;2.40;;
25509;SDS011;13413;52.336;21.200;2023-08-12T13:32:36;4.90;;;2.60;;
25509;SDS011;13413;52.336;21.200;2023-08-12T13:35:30;7.40;;;2.40;;
25509;SDS011;13413;52.336;21.200;2023-08-12T13:38:24;7.10;;;2.50;;
25509;SDS011;13413;52.336;21.200;2023-08-12T13:41:18;6.10;;;2.90;;
25509;SDS011;13413;52.336;21.200;2023-08-12T13:44:12;5.90;;;2.60;;
25509;SDS011;13413;52.336;21.200;2023-08-12T13:47:06;4.90;;;3.00;;
25509;SDS011;13413;52.336;21.200;2023-08-12T13:50:00;4.10;;;2.60;;
25509;SDS011;13413;52.336;21.200;2023-08-12T13:52:54;6.50;;;2.60;;
25509;SDS011;13413;52.336;21.200;2023-08-12T13:55:48;6.20;;;2.80;;
25509;SDS011;13413;52.336;21.200;2023-08-12T13:58:42;6.70;;;2.80;;
25509;SDS011;13413;52.336;21.200;2023-08-12T14:01:36;5.20;;;2.70;;
25509;SDS011;13413;52.336;21.200;2023-08-12T14:04:30;4.90;;;2.30;;
25509;SDS011;13413;52.336;21.200;2023-08-12T14:07:24;6.10;;;2.80;;
25509;SDS011;13413;52.336;21.200;2023-08-12T14:10:18;6.60;;;2.90;;
25509;SDS011;13413;52.336;21.200;2023-08-12T14:13:12;5.70;;;2.20;;
25509;SDS011;13413;52.336;21.200;2023-08-12T14:16:06;6.40;;;2.80;;
25509;SDS011;13413;52.336;21.200;2023-08-12T14:19:00;4.30;;;2.90;;
25509;SDS011;13413;52.336;21.200;2023-08-12T14:21:54;6.20;;;2.80;;
25509;SDS011;13413;52.336;21.200;2023-08-12T14:24:48;7.00;;;3.20;;
25509;SDS011;13413;52.336;21.200;2023-08-12T14:27:42;4.20;;;2.70;;
25509;SDS011;13413;52.336;21.200;2023-08-12T14:30:36;5.40;;;2.90;;
25509;SDS011;13413;52.336;21.200;2023-08-12T14:33:30;6.50;;;3.00;;
25509;SDS011;13413;52.336;21.200;2023-08-12T14:36:24;9.90;;;3.40;;
25509;SDS011;13413;52.336;21.200;2023-08-12T14:39:18;7.40;;;2.70;;
25509;SDS011;13413;52.336;21.200;2023-08-12T14:42:19;7.60;;;3.40;;
25509;SDS011;13413;52.336;21.200;2023-08-12T14:45:20;6.00;;;2.70;;
25509;SDS011;13413;52.336;21.200;2023-08-12T14:48:14;6.50;;;2.80;;
25509;SDS011;13413;52.336;21.200;2023-08-12T14:51:08;5.00;;;2.90;;
25509;SDS011;13413;52.336;21.200;2023-08-12T14:54:02;5.60;;;3.10;;
25509;SDS011;13413;52.336;21.200;2023-08-12T14:56:56;4.80;;;2.60;;
25509;SDS011;13413;52.336;21.200;2023-08-12T14:59:50;4.30;;;2.50;;
25509;SDS011;13413;52.336;21.200;2023-08-12T15:02:44;6.30;;;2.90;;
25509;SDS011;13413;52.336;21.200;2023-08-12T15:05:38;7.10;;;3.00;;
25509;SDS011;13413;52.336;21.200;2023-08-12T15:08:32;6.70;;;4.40;;
25509;SDS011;13413;52.336;21.200;2023-08-12T15:11:26;7.60;;;3.30;;
25509;SDS011;13413;52.336;21.200;2023-08-12T15:14:20;5.50;;;4.00;;
25509;SDS011;13413;52.336;21.200;2023-08-12T15:17:14;9.30;;;4.60;;
25509;SDS011;13413;52.336;21.200;2023-08-12T15:20:09;6.60;;;3.10;;
25509;SDS011;13413;52.336;21.200;2023-08-12T15:28:47;12.10;;;3.70;;
25509;SDS011;13413;52.336;21.200;2023-08-12T15:31:41;8.50;;;2.90;;
25509;SDS011;13413;52.336;21.200;2023-08-12T15:34:35;4.60;;;3.20;;
25509;SDS011;13413;52.336;21.200;2023-08-12T15:37:29;6.30;;;3.20;;
25509;SDS011;13413;52.336;21.200;2023-08-12T15:40:23;5.20;;;3.10;;
25509;SDS011;13413;52.336;21.200;2023-08-12T15:43:17;4.90;;;2.50;;
25509;SDS011;13413;52.336;21.200;2023-08-12T15:46:11;8.10;;;5.00;;
25509;SDS011;13413;52.336;21.200;2023-08-12T15:49:05;7.80;;;3.90;;
25509;SDS011;13413;52.336;21.200;2023-08-12T15:52:00;4.20;;;3.00;;
25509;SDS011;13413;52.336;21.200;2023-08-12T15:54:54;5.60;;;3.20;;
25509;SDS011;13413;52.336;21.200;2023-08-12T15:57:48;5.40;;;2.90;;
25509;SDS011;13413;52.336;21.200;2023-08-12T16:00:42;6.80;;;2.70;;
25509;SDS011;13413;52.336;21.200;2023-08-12T16:03:36;8.00;;;2.90;;
25509;SDS011;13413;52.336;21.200;2023-08-12T16:06:30;8.20;;;2.90;;
25509;SDS011;13413;52.336;21.200;2023-08-12T16:09:24;4.20;;;2.50;;
25509;SDS011;13413;52.336;21.200;2023-08-12T16:12:18;7.00;;;2.60;;
25509;SDS011;13413;52.336;21.200;2023-08-12T16:15:12;7.70;;;2.80;;
25509;SDS011;13413;52.336;21.200;2023-08-12T16:18:06;5.40;;;2.40;;
25509;SDS011;13413;52.336;21.200;2023-08-12T16:21:00;4.50;;;2.50;;
25509;SDS011;13413;52.336;21.200;2023-08-12T16:23:54;3.20;;;2.50;;
25509;SDS011;13413;52.336;21.200;2023-08-12T16:26:48;8.90;;;2.90;;
25509;SDS011;13413;52.336;21.200;2023-08-12T16:29:42;5.50;;;2.70;;
25509;SDS011;13413;52.336;21.200;2023-08-12T16:32:36;9.70;;;3.40;;
25509;SDS011;13413;52.336;21.200;2023-08-12T16:35:30;7.70;;;2.60;;
25509;SDS011;13413;52.336;21.200;2023-08-12T16:38:24;4.30;;;2.60;;
25509;SDS011;13413;52.336;21.200;2023-08-12T16:41:18;4.70;;;2.40;;
25509;SDS011;13413;52.336;21.200;2023-08-12T16:44:12;3.70;;;2.40;;
25509;SDS011;13413;52.336;21.200;2023-08-12T16:47:06;7.10;;;2.30;;
25509;SDS011;13413;52.336;21.200;2023-08-12T16:50:01;4.80;;;2.10;;
25509;SDS011;13413;52.336;21.200;2023-08-12T16:52:55;4.90;;;2.40;;
25509;SDS011;13413;52.336;21.200;2023-08-12T16:55:49;5.40;;;2.30;;
25509;SDS011;13413;52.336;21.200;2023-08-12T16:58:43;6.10;;;3.20;;
25509;SDS011;13413;52.336;21.200;2023-08-12T17:01:37;7.30;;;3.10;;
25509;SDS011;13413;52.336;21.200;2023-08-12T17:04:31;6.60;;;3.40;;
25509;SDS011;13413;52.336;21.200;2023-08-12T17:07:25;5.40;;;3.40;;
25509;SDS011;13413;52.336;21.200;2023-08-12T17:10:19;7.90;;;4.80;;
25509;SDS011;13413;52.336;21.200;2023-08-12T17:13:13;6.40;;;3.90;;
25509;SDS011;13413;52.336;21.200;2023-08-12T17:16:07;16.10;;;5.00;;
25509;SDS011;13413;52.336;21.200;2023-08-12T17:19:01;9.90;;;4.30;;
25509;SDS011;13413;52.336;21.200;2023-08-12T17:21:55;8.30;;;4.50;;
25509;SDS011;13413;52.336;21.200;2023-08-12T17:24:49;11.00;;;4.70;;
25509;SDS011;13413;52.336;21.200;2023-08-12T17:27:43;9.50;;;6.30;;
25509;SDS011;13413;52.336;21.200;2023-08-12T17:30:37;10.50;;;5.40;;
25509;SDS011;13413;52.336;21.200;2023-08-12T17:33:31;16.90;;;9.20;;
25509;SDS011;13413;52.336;21.200;2023-08-12T17:36:25;12.90;;;9.00;;
25509;SDS011;13413;52.336;21.200;2023-08-12T17:39:19;13.00;;;5.60;;
25509;SDS011;13413;52.336;21.200;2023-08-12T17:45:01;11.30;;;6.30;;
25509;SDS011;13413;52.336;21.200;2023-08-12T17:50:49;8.00;;;3.80;;
25509;SDS011;13413;52.336;21.200;2023-08-12T17:53:43;6.40;;;3.90;;
25509;SDS011;13413;52.336;21.200;2023-08-12T17:56:37;9.10;;;4.70;;
25509;SDS011;13413;52.336;21.200;2023-08-12T17:59:31;5.80;;;3.80;;
25509;SDS011;13413;52.336;21.200;2023-08-12T18:02:25;11.40;;;3.80;;
25509;SDS011;13413;52.336;21.200;2023-08-12T18:05:19;6.30;;;3.90;;
25509;SDS011;13413;52.336;21.200;2023-08-12T18:08:13;5.50;;;3.60;;
25509;SDS011;13413;52.336;21.200;2023-08-12T18:11:07;11.30;;;3.50;;
25509;SDS011;13413;52.336;21.200;2023-08-12T18:14:01;9.90;;;4.60;;
25509;SDS011;13413;52.336;21.200;2023-08-12T18:16:58;8.00;;;4.30;;
25509;SDS011;13413;52.336;21.200;2023-08-12T18:19:51;8.30;;;4.40;;
25509;SDS011;13413;52.336;21.200;2023-08-12T18:22:45;7.70;;;3.80;;
25509;SDS011;13413;52.336;21.200;2023-08-12T18:25:39;11.10;;;5.00;;
25509;SDS011;13413;52.336;21.200;2023-08-12T18:28:33;8.60;;;4.80;;
25509;SDS011;13413;52.336;21.200;2023-08-12T18:31:28;11.90;;;5.40;;
25509;SDS011;13413;52.336;21.200;2023-08-12T18:34:21;7.40;;;4.40;;
25509;SDS011;13413;52.336;21.200;2023-08-12T18:37:15;9.80;;;5.30;;
25509;SDS011;13413;52.336;21.200;2023-08-12T18:40:10;9.60;;;4.70;;
25509;SDS011;13413;52.336;21.200;2023-08-12T18:45:56;7.90;;;4.30;;
25509;SDS011;13413;52.336;21.200;2023-08-12T18:48:51;12.60;;;4.60;;